createdAt,value
2022-12-17T00:02:17.865Z,99431.31
2022-12-17T00:07:27.990Z,99427.19
2022-12-17T00:12:38.483Z,99424.38
2022-12-17T00:17:48.912Z,99429.72
2022-12-17T00:22:59.674Z,99424.53
2022-12-17T00:28:10.209Z,99410.34
2022-12-17T00:33:20.674Z,99412.19
2022-12-17T00:38:37.854Z,99408.56
2022-12-17T00:43:48.542Z,99416.25
2022-12-17T00:48:59.650Z,99413.41
2022-12-17T00:54:10.005Z,99421.94
2022-12-17T00:59:20.611Z,99408.31
2022-12-17T01:04:30.947Z,99409.84
2022-12-17T01:09:41.311Z,99407.16
2022-12-17T01:14:51.689Z,99397.34
2022-12-17T01:20:02.147Z,99396.19
2022-12-17T01:25:12.667Z,99397.84
2022-12-17T01:30:23.186Z,99385.69
2022-12-17T01:35:33.719Z,99384.53
2022-12-17T01:40:44.207Z,99382.25
2022-12-17T01:46:02.283Z,99390.91
2022-12-17T01:51:15.230Z,99390.75
2022-12-17T01:56:27.272Z,99393.13
2022-12-17T02:01:38.103Z,99399.13
2022-12-17T02:06:54.006Z,99386.97
2022-12-17T02:12:43.816Z,99398.91
2022-12-17T02:18:08.685Z,99392.38
2022-12-17T02:23:40.134Z,99402.66
2022-12-17T02:29:03.207Z,99395.97
2022-12-17T02:34:24.787Z,99389.97
2022-12-17T02:39:35.022Z,99382.44
2022-12-17T02:44:47.424Z,99381.59
2022-12-17T02:49:57.866Z,99385.47
2022-12-17T02:55:08.175Z,99385.84
2022-12-17T03:00:18.685Z,99385.22
2022-12-17T03:05:44.545Z,99379.75
2022-12-17T03:10:55.182Z,99381.41
2022-12-17T03:16:05.833Z,99388.72
2022-12-17T03:21:16.348Z,99385.06
2022-12-17T03:26:26.812Z,99374.41
2022-12-17T03:31:37.045Z,99368.38
2022-12-17T03:36:48.412Z,99371.22
2022-12-17T03:41:58.946Z,99375.88
2022-12-17T03:47:09.119Z,99381.34
2022-12-17T03:52:19.702Z,99377.00
2022-12-17T03:57:30.275Z,99367.50
2022-12-17T04:02:40.749Z,99371.81
2022-12-17T04:07:51.338Z,99364.22
2022-12-17T04:13:01.800Z,99361.09
2022-12-17T04:18:14.883Z,99355.31
2022-12-17T04:23:24.904Z,99357.50
2022-12-17T04:28:35.181Z,99348.47
2022-12-17T04:33:45.475Z,99346.53
2022-12-17T04:38:56.037Z,99346.19
2022-12-17T04:44:17.255Z,99336.38
2022-12-17T04:49:27.056Z,99353.56
2022-12-17T04:54:37.260Z,99347.75
2022-12-17T04:59:47.413Z,99344.78
2022-12-17T05:04:57.668Z,99337.59
2022-12-17T05:10:08.025Z,99351.28
2022-12-17T05:15:17.993Z,99352.31
2022-12-17T05:20:28.397Z,99349.63
2022-12-17T05:25:38.689Z,99349.47
2022-12-17T05:30:48.768Z,99353.13
2022-12-17T05:35:59.075Z,99350.47
2022-12-17T05:41:10.051Z,99341.63
2022-12-17T05:46:21.815Z,99346.63
2022-12-17T05:51:37.053Z,99352.66
2022-12-17T05:56:48.704Z,99340.63
2022-12-17T06:01:58.915Z,99351.63
2022-12-17T06:07:09.167Z,99348.00
2022-12-17T06:12:20.101Z,99346.84
2022-12-17T06:17:30.569Z,99353.66
2022-12-17T06:22:40.953Z,99350.84
2022-12-17T06:27:51.144Z,99342.03
2022-12-17T06:33:01.736Z,99348.19
2022-12-17T06:38:24.118Z,99354.38
2022-12-17T06:43:34.744Z,99362.88
2022-12-17T06:48:45.263Z,99364.25
2022-12-17T06:53:55.674Z,99364.41
2022-12-17T06:59:05.910Z,99363.78
2022-12-17T07:04:16.479Z,99372.13
2022-12-17T07:09:27.659Z,99373.16
2022-12-17T07:14:38.068Z,99368.16
2022-12-17T07:19:48.179Z,99368.72
2022-12-17T07:24:58.507Z,99374.72
2022-12-17T07:30:08.363Z,99379.72
2022-12-17T07:35:18.290Z,99387.56
2022-12-17T07:40:29.213Z,99384.72
2022-12-17T07:45:39.844Z,99392.25
2022-12-17T07:50:49.823Z,99395.25
2022-12-17T07:55:59.724Z,99409.31
2022-12-17T08:01:10.267Z,99410.78
2022-12-17T08:06:20.829Z,99415.97
2022-12-17T08:11:31.201Z,99411.81
2022-12-17T08:16:41.674Z,99405.69
2022-12-17T08:21:52.235Z,99400.16
2022-12-17T08:27:02.941Z,99402.34
2022-12-17T08:32:13.570Z,99405.34
2022-12-17T08:37:24.052Z,99413.56
2022-12-17T08:42:34.401Z,99411.41
2022-12-17T08:47:44.766Z,99422.41
2022-12-17T08:52:55.380Z,99433.28
2022-12-17T08:58:16.301Z,99424.78
2022-12-17T09:03:27.369Z,99436.97
2022-12-17T09:08:37.547Z,99431.28
2022-12-17T09:13:48.028Z,99440.81
2022-12-17T09:18:58.875Z,99436.66
2022-12-17T09:24:09.211Z,99444.66
2022-12-17T09:29:19.759Z,99448.38
2022-12-17T09:34:30.302Z,99447.53
2022-12-17T09:39:41.034Z,99455.06
2022-12-17T09:45:21.918Z,99456.38
2022-12-17T09:50:34.436Z,99461.22
2022-12-17T09:55:58.401Z,99450.88
2022-12-17T10:01:09.799Z,99457.53
2022-12-17T10:06:28.434Z,99460.22
2022-12-17T10:11:40.344Z,99455.19
2022-12-17T10:17:00.347Z,99459.19
2022-12-17T10:22:10.729Z,99462.34
2022-12-17T10:27:36.541Z,99469.16
2022-12-17T10:32:47.716Z,99469.72
2022-12-17T10:37:58.239Z,99478.41
2022-12-17T10:43:08.691Z,99472.75
2022-12-17T10:48:19.168Z,99474.09
2022-12-17T10:53:40.054Z,99475.94
2022-12-17T10:58:50.816Z,99469.91
2022-12-17T11:04:13.103Z,99469.91
2022-12-17T11:09:23.533Z,99467.75
2022-12-17T11:14:34.002Z,99466.53
2022-12-17T11:19:58.821Z,99462.50
2022-12-17T11:25:16.203Z,99453.97
2022-12-17T11:30:34.041Z,99446.56
2022-12-17T11:35:56.315Z,99450.50
2022-12-17T11:41:29.998Z,99457.31
2022-12-17T11:47:12.587Z,99456.44
2022-12-17T11:52:48.564Z,99466.78
2022-12-17T11:58:19.195Z,99448.84
2022-12-17T12:03:49.093Z,99449.03
2022-12-17T12:09:23.377Z,99431.28
2022-12-17T12:15:02.797Z,99435.09
2022-12-17T12:20:21.930Z,99441.63
2022-12-17T12:25:47.316Z,99452.19
2022-12-17T12:31:35.650Z,99437.78
2022-12-17T12:36:46.850Z,99433.91
2022-12-17T12:42:20.202Z,99446.97
2022-12-17T12:47:40.923Z,99431.53
2022-12-17T12:52:51.263Z,99433.22
2022-12-17T12:58:16.152Z,99432.66
2022-12-17T13:03:44.248Z,99426.00
2022-12-17T13:08:37.090Z,99427.13
2022-12-17T13:13:39.916Z,99428.25
2022-12-17T13:18:37.955Z,99429.56
2022-12-17T13:23:32.077Z,99428.66
2022-12-17T13:28:31.064Z,99422.94
2022-12-17T13:33:41.915Z,99431.63
2022-12-17T13:39:15.664Z,99430.53
2022-12-17T13:44:25.518Z,99436.06
2022-12-17T13:49:22.039Z,99438.94
2022-12-17T13:54:19.606Z,99430.03
2022-12-17T13:59:19.063Z,99426.69
2022-12-17T14:04:29.560Z,99434.75
2022-12-17T14:09:23.843Z,99435.56
2022-12-17T14:14:28.936Z,99434.38
2022-12-17T14:19:20.833Z,99423.28
2022-12-17T14:24:14.108Z,99433.66
2022-12-17T14:29:13.496Z,99418.03
2022-12-17T14:34:11.580Z,99420.19
2022-12-17T14:39:11.204Z,99434.09
2022-12-17T14:44:04.254Z,99431.41
2022-12-17T14:49:03.612Z,99447.50
2022-12-17T14:54:06.604Z,99444.63
2022-12-17T14:58:58.384Z,99443.78
2022-12-17T15:03:50.229Z,99452.50
2022-12-17T15:08:47.369Z,99462.00
2022-12-17T15:13:39.123Z,99452.31
2022-12-17T15:18:30.851Z,99455.81
2022-12-17T15:23:23.572Z,99454.50
2022-12-17T15:28:17.533Z,99456.53
2022-12-17T15:33:10.014Z,99458.41
2022-12-17T15:38:01.968Z,99464.59
2022-12-17T15:43:12.205Z,99470.78
2022-12-17T15:48:03.919Z,99474.97
2022-12-17T15:52:55.591Z,99466.91
2022-12-17T15:57:47.152Z,99462.72
2022-12-17T16:02:39.215Z,99475.78
2022-12-17T16:07:31.237Z,99469.78
2022-12-17T16:12:22.912Z,99477.81
2022-12-17T16:17:14.621Z,99475.16
2022-12-17T16:22:06.902Z,99480.69
2022-12-17T16:27:04.392Z,99476.69
2022-12-17T16:31:56.391Z,99477.59
2022-12-17T16:36:48.121Z,99473.59
2022-12-17T16:41:39.742Z,99474.16
2022-12-17T16:46:36.468Z,99476.50
2022-12-17T16:51:29.733Z,99471.69
2022-12-17T16:56:23.726Z,99472.03
2022-12-17T17:01:24.542Z,99461.03
2022-12-17T17:06:17.825Z,99464.41
2022-12-17T17:11:16.502Z,99463.75
2022-12-17T17:16:10.046Z,99483.06
2022-12-17T17:21:25.154Z,99483.94
2022-12-17T17:26:17.567Z,99492.16
2022-12-17T17:31:12.699Z,99493.50
2022-12-17T17:36:14.239Z,99498.56
2022-12-17T17:41:07.877Z,99497.22
2022-12-17T17:46:14.698Z,99505.44
2022-12-17T17:52:07.110Z,99508.13
2022-12-17T17:56:43.596Z,99505.63
2022-12-17T18:01:40.378Z,99499.78
2022-12-17T18:06:32.698Z,99500.13
2022-12-17T18:11:25.341Z,99514.88
2022-12-17T18:16:17.989Z,99523.59
2022-12-17T18:21:13.907Z,99525.09
2022-12-17T18:26:14.128Z,99521.31
2022-12-17T18:31:18.192Z,99533.19
2022-12-17T18:36:16.032Z,99526.47
2022-12-17T18:41:30.621Z,99537.53
2022-12-17T18:46:23.579Z,99551.44
2022-12-17T18:51:15.282Z,99550.13
2022-12-17T18:56:11.164Z,99562.00
2022-12-17T19:01:03.573Z,99581.91
2022-12-17T19:05:55.404Z,99584.91
2022-12-17T19:10:47.039Z,99575.41
2022-12-17T19:15:38.658Z,99568.06
2022-12-17T19:20:30.321Z,99561.34
2022-12-17T19:25:22.089Z,99559.19
2022-12-17T19:30:13.864Z,99574.91
2022-12-17T19:35:05.820Z,99583.44
2022-12-17T19:39:57.549Z,99577.41
2022-12-17T19:44:49.265Z,99570.56
2022-12-17T19:49:41.311Z,99560.19
2022-12-17T19:54:32.983Z,99569.72
2022-12-17T19:59:24.743Z,99570.56
2022-12-17T20:04:16.996Z,99584.59
2022-12-17T20:09:08.655Z,99581.09
2022-12-17T20:14:04.121Z,99577.41
2022-12-17T20:18:56.112Z,99589.28
2022-12-17T20:23:49.285Z,99579.09
2022-12-17T20:28:41.344Z,99572.22
2022-12-17T20:33:33.573Z,99577.91
2022-12-17T20:38:25.251Z,99579.91
2022-12-17T20:43:17.023Z,99586.44
2022-12-17T20:48:08.774Z,99598.63
2022-12-17T20:53:00.532Z,99597.47
2022-12-17T20:57:52.300Z,99602.28
2022-12-17T21:02:43.959Z,99597.41
2022-12-17T21:07:35.720Z,99600.41
2022-12-17T21:12:47.450Z,99587.53
2022-12-17T21:17:39.253Z,99576.50
2022-12-17T21:22:30.908Z,99584.53
2022-12-17T21:27:23.025Z,99594.03
2022-12-17T21:32:15.623Z,99601.69
2022-12-17T21:37:07.423Z,99606.50
2022-12-17T21:42:20.181Z,99620.91
2022-12-17T21:47:12.043Z,99614.84
2022-12-17T21:52:04.035Z,99617.84
2022-12-17T21:56:58.763Z,99624.03
2022-12-17T22:01:51.159Z,99621.53
2022-12-17T22:06:46.293Z,99614.50
2022-12-17T22:11:40.949Z,99604.81
2022-12-17T22:16:34.427Z,99591.59
2022-12-17T22:21:26.972Z,99596.13
2022-12-17T22:26:20.264Z,99604.13
2022-12-17T22:31:31.597Z,99602.78
2022-12-17T22:38:39.372Z,99601.44
2022-12-17T22:44:38.822Z,99603.41
2022-12-17T22:47:08.941Z,99599.41
2022-12-17T22:52:00.723Z,99599.72
2022-12-17T22:57:34.994Z,99601.53
2022-12-17T23:02:04.408Z,99611.56
2022-12-17T23:06:56.149Z,99616.09
2022-12-17T23:11:49.028Z,99605.56
2022-12-17T23:16:41.519Z,99608.38
2022-12-17T23:21:33.507Z,99611.69
2022-12-17T23:26:28.193Z,99593.78
2022-12-17T23:31:21.524Z,99585.56
2022-12-17T23:36:16.090Z,99587.22
2022-12-17T23:41:10.515Z,99581.47
2022-12-17T23:46:02.532Z,99584.63
2022-12-17T23:50:54.367Z,99569.25
2022-12-17T23:55:46.060Z,99573.41
